createdAt,value
2018-10-03T00:00:07.971Z,1.85
2018-10-03T00:02:38.330Z,2.40
2018-10-03T00:07:37.830Z,1.90
2018-10-03T00:10:07.826Z,1.50
2018-10-03T00:12:37.790Z,1.60
2018-10-03T00:15:09.654Z,1.90
2018-10-03T00:20:07.645Z,1.70
2018-10-03T00:23:02.899Z,2.10
2018-10-03T00:26:47.578Z,1.80
2018-10-03T00:29:16.889Z,2.05
2018-10-03T00:36:44.489Z,2.13
2018-10-03T00:39:13.857Z,2.00
2018-10-03T00:42:48.810Z,1.77
2018-10-03T00:45:18.192Z,1.95
2018-10-03T00:47:47.794Z,1.80
2018-10-03T00:50:17.004Z,1.73
2018-10-03T00:52:46.935Z,1.70
2018-10-03T00:55:16.729Z,1.80
2018-10-03T00:57:46.008Z,1.90
2018-10-03T01:00:16.063Z,1.93
2018-10-03T01:02:45.838Z,2.00
2018-10-03T01:05:15.642Z,2.00
2018-10-03T01:07:44.922Z,1.90
2018-10-03T01:10:14.817Z,1.50
2018-10-03T01:12:44.581Z,2.03
2018-10-03T01:15:17.150Z,1.80
2018-10-03T01:17:47.864Z,1.60
2018-10-03T01:20:17.069Z,1.70
2018-10-03T01:22:46.816Z,1.67
2018-10-03T01:27:45.825Z,1.55
2018-10-03T01:30:15.190Z,1.50
2018-10-03T01:32:44.901Z,2.30
2018-10-03T01:35:14.586Z,2.30
2018-10-03T01:40:14.629Z,1.50
2018-10-03T01:42:44.761Z,1.67
2018-10-03T01:45:14.643Z,1.80
2018-10-03T01:47:44.872Z,1.40
2018-10-03T01:50:14.769Z,1.60
2018-10-03T01:52:44.768Z,1.50
2018-10-03T01:57:42.985Z,1.72
2018-10-03T02:00:13.822Z,1.55
2018-10-03T02:02:43.778Z,1.50
2018-10-03T02:05:12.925Z,1.40
2018-10-03T02:07:42.794Z,1.85
2018-10-03T02:10:12.624Z,1.35
2018-10-03T02:12:42.777Z,1.70
2018-10-03T02:15:12.833Z,1.90
2018-10-03T02:17:44.829Z,1.60
2018-10-03T02:20:14.847Z,1.70
2018-10-03T02:22:44.029Z,1.50
2018-10-03T02:25:13.277Z,1.80
2018-10-03T02:32:39.818Z,1.40
2018-10-03T02:35:08.998Z,1.50
2018-10-03T02:37:38.612Z,1.33
2018-10-03T02:40:07.881Z,1.30
2018-10-03T02:42:37.581Z,1.50
2018-10-03T02:45:06.627Z,1.60
2018-10-03T02:47:35.790Z,1.30
2018-10-03T02:50:05.697Z,1.53
2018-10-03T02:55:04.861Z,1.73
2018-10-03T02:57:34.105Z,1.60
2018-10-03T03:00:03.754Z,1.45
2018-10-03T03:02:33.207Z,1.70
2018-10-03T03:05:02.782Z,1.25
2018-10-03T03:07:32.801Z,1.30
2018-10-03T03:10:05.991Z,1.37
2018-10-03T03:15:04.741Z,1.65
2018-10-03T03:18:41.059Z,1.60
2018-10-03T03:21:12.174Z,1.20
2018-10-03T03:23:41.733Z,1.53
2018-10-03T03:26:10.957Z,1.30
2018-10-03T03:28:39.993Z,1.30
2018-10-03T03:31:09.765Z,1.22
2018-10-03T03:36:01.246Z,1.50
2018-10-03T03:38:31.532Z,1.40
2018-10-03T03:41:00.874Z,1.50
2018-10-03T03:43:29.961Z,1.40
2018-10-03T03:46:00.406Z,1.60
2018-10-03T03:49:17.958Z,1.47
2018-10-03T03:51:47.765Z,1.30
2018-10-03T03:54:18.745Z,1.47
2018-10-03T03:56:47.926Z,1.20
2018-10-03T03:59:18.066Z,1.47
2018-10-03T04:04:16.645Z,1.22
2018-10-03T04:09:14.215Z,1.40
2018-10-03T04:11:44.445Z,1.35
2018-10-03T04:14:13.766Z,1.40
2018-10-03T04:20:32.572Z,1.40
2018-10-03T04:23:02.746Z,1.40
2018-10-03T04:25:32.730Z,1.20
2018-10-03T04:28:01.854Z,1.20
2018-10-03T04:30:31.205Z,1.37
2018-10-03T04:33:01.771Z,1.40
2018-10-03T04:35:31.637Z,1.20
2018-10-03T04:38:01.889Z,1.10
2018-10-03T04:40:30.901Z,1.42
2018-10-03T04:43:00.609Z,1.90
2018-10-03T04:45:30.068Z,1.70
2018-10-03T04:47:59.954Z,1.30
2018-10-03T04:50:30.556Z,1.30
2018-10-03T04:53:01.871Z,1.40
2018-10-03T04:55:31.063Z,1.37
2018-10-03T04:57:59.994Z,1.30
2018-10-03T05:00:29.801Z,1.32
2018-10-03T05:02:59.555Z,1.60
2018-10-03T05:07:57.596Z,1.25
2018-10-03T05:10:26.772Z,1.47
2018-10-03T05:12:56.721Z,1.10
2018-10-03T05:15:28.944Z,1.20
2018-10-03T05:17:58.581Z,1.20
2018-10-03T05:20:28.757Z,1.20
2018-10-03T05:22:57.950Z,1.22
2018-10-03T05:25:28.204Z,1.35
2018-10-03T05:27:57.836Z,1.10
2018-10-03T05:30:26.783Z,1.60
2018-10-03T05:32:55.892Z,2.63
2018-10-03T05:35:25.199Z,1.10
2018-10-03T05:37:54.891Z,1.30
2018-10-03T05:40:24.602Z,1.15
2018-10-03T05:42:55.538Z,1.23
2018-10-03T05:45:24.183Z,1.30
2018-10-03T05:47:53.669Z,1.10
2018-10-03T05:50:22.846Z,1.30
2018-10-03T05:52:51.835Z,1.25
2018-10-03T05:55:21.662Z,1.17
2018-10-03T05:57:51.177Z,1.30
2018-10-03T06:00:21.616Z,1.35
2018-10-03T06:02:50.802Z,1.30
2018-10-03T06:05:19.833Z,1.37
2018-10-03T06:07:49.199Z,1.70
2018-10-03T06:10:18.606Z,1.30
2018-10-03T06:12:47.939Z,1.00
2018-10-03T06:15:18.829Z,1.40
2018-10-03T06:17:48.738Z,1.37
2018-10-03T06:20:17.840Z,1.30
2018-10-03T06:22:47.926Z,1.10
2018-10-03T06:25:17.730Z,1.03
2018-10-03T06:27:47.016Z,1.20
2018-10-03T06:30:16.470Z,1.50
2018-10-03T06:32:45.825Z,1.05
2018-10-03T06:35:15.864Z,1.40
2018-10-03T06:37:45.012Z,1.35
2018-10-03T06:45:24.891Z,1.15
2018-10-03T06:47:53.971Z,1.20
2018-10-03T06:51:45.976Z,1.10
2018-10-03T06:54:15.643Z,1.23
2018-10-03T06:56:44.826Z,1.20
2018-10-03T06:59:15.702Z,1.20
2018-10-03T07:01:44.869Z,1.40
2018-10-03T07:04:14.692Z,1.00
2018-10-03T07:06:43.859Z,1.35
2018-10-03T07:09:13.758Z,1.30
2018-10-03T07:11:43.734Z,1.10
2018-10-03T07:14:13.782Z,1.20
2018-10-03T07:16:42.921Z,1.40
2018-10-03T07:19:16.199Z,1.10
2018-10-03T07:21:48.794Z,1.20
2018-10-03T07:24:18.000Z,1.00
2018-10-03T07:26:47.646Z,1.40
2018-10-03T07:29:21.555Z,1.25
2018-10-03T07:31:51.770Z,1.10
2018-10-03T07:36:49.798Z,1.20
2018-10-03T07:39:18.846Z,1.30
2018-10-03T07:41:47.985Z,1.10
2018-10-03T07:44:17.194Z,1.30
2018-10-03T07:46:46.933Z,1.30
2018-10-03T07:49:18.877Z,1.10
2018-10-03T07:51:48.810Z,1.50
2018-10-03T07:54:17.997Z,1.30
2018-10-03T07:56:47.778Z,1.10
2018-10-03T07:59:17.118Z,1.20
2018-10-03T08:01:46.966Z,1.10
2018-10-03T08:04:36.682Z,1.30
2018-10-03T08:07:07.270Z,1.00
2018-10-03T08:09:38.910Z,1.00
2018-10-03T08:12:08.841Z,1.10
2018-10-03T08:14:38.841Z,1.10
2018-10-03T08:19:37.954Z,1.00
2018-10-03T08:22:07.804Z,1.10
2018-10-03T08:27:07.216Z,1.23
2018-10-03T08:29:36.925Z,1.20
2018-10-03T08:32:06.922Z,1.00
2018-10-03T08:34:37.640Z,1.60
2018-10-03T08:37:07.858Z,1.70
2018-10-03T08:39:37.827Z,1.30
2018-10-03T08:42:08.829Z,1.30
2018-10-03T08:47:07.962Z,1.50
2018-10-03T08:49:37.959Z,1.70
2018-10-03T08:52:09.985Z,1.50
2018-10-03T08:54:39.971Z,1.60
2018-10-03T08:57:09.961Z,1.90
2018-10-03T08:59:39.982Z,1.75
2018-10-03T09:02:09.999Z,2.20
2018-10-03T09:04:40.042Z,1.80
2018-10-03T09:07:10.017Z,1.70
2018-10-03T09:09:40.022Z,1.80
2018-10-03T09:12:10.099Z,1.95
2018-10-03T09:14:40.972Z,2.10
2018-10-03T09:17:13.295Z,2.00
2018-10-03T09:19:45.958Z,1.53
2018-10-03T09:22:15.996Z,1.77
2018-10-03T09:24:45.979Z,1.90
2018-10-03T09:27:15.047Z,2.30
2018-10-03T09:29:44.962Z,1.63
2018-10-03T09:34:38.814Z,1.75
2018-10-03T09:37:08.479Z,1.70
2018-10-03T09:42:06.894Z,2.10
2018-10-03T09:44:37.084Z,2.35
2018-10-03T09:47:08.395Z,1.80
2018-10-03T09:49:38.882Z,1.97
2018-10-03T09:52:09.846Z,1.70
2018-10-03T09:54:39.799Z,2.00
2018-10-03T09:57:09.923Z,1.75
2018-10-03T09:59:39.941Z,1.80
2018-10-03T10:02:09.789Z,1.92
2018-10-03T10:07:10.310Z,1.70
2018-10-03T10:12:11.759Z,1.70
2018-10-03T10:14:42.865Z,1.75
2018-10-03T10:19:41.957Z,1.95
2018-10-03T10:24:40.930Z,2.40
2018-10-03T10:27:11.316Z,2.27
2018-10-03T10:29:41.924Z,1.80
2018-10-03T10:34:42.746Z,1.70
2018-10-03T10:37:48.972Z,2.00
2018-10-03T10:42:38.961Z,2.75
2018-10-03T10:49:15.958Z,2.97
2018-10-03T10:51:48.735Z,2.60
2018-10-03T10:54:18.878Z,2.30
2018-10-03T10:56:49.852Z,2.00
2018-10-03T10:59:19.865Z,2.50
2018-10-03T11:01:49.882Z,2.60
2018-10-03T11:04:45.871Z,2.53
2018-10-03T11:07:14.993Z,2.45
2018-10-03T11:09:44.884Z,2.20
2018-10-03T11:12:15.033Z,2.75
2018-10-03T11:14:44.837Z,2.30
2018-10-03T11:17:14.032Z,2.70
2018-10-03T11:19:43.769Z,2.70
2018-10-03T11:22:13.877Z,2.50
2018-10-03T11:25:08.465Z,2.30
2018-10-03T11:27:38.654Z,2.20
2018-10-03T11:30:08.558Z,2.00
2018-10-03T11:32:38.140Z,2.60
2018-10-03T11:37:15.957Z,2.40
2018-10-03T11:42:16.945Z,2.40
2018-10-03T11:47:17.983Z,3.80
2018-10-03T11:49:48.967Z,2.70
2018-10-03T11:54:50.590Z,2.60
2018-10-03T12:02:20.870Z,2.90
2018-10-03T12:04:53.473Z,2.80
2018-10-03T12:09:52.893Z,2.25
2018-10-03T12:12:22.937Z,2.25
2018-10-03T12:14:52.901Z,2.60
2018-10-03T12:17:21.980Z,3.25
2018-10-03T12:19:51.882Z,2.10
2018-10-03T12:22:21.558Z,2.60
2018-10-03T12:24:51.725Z,2.35
2018-10-03T12:27:21.216Z,2.25
2018-10-03T12:29:52.005Z,3.00
2018-10-03T12:32:28.842Z,2.73
2018-10-03T12:34:58.886Z,3.10
2018-10-03T12:38:52.989Z,3.10
2018-10-03T12:41:23.061Z,3.27
2018-10-03T12:43:52.973Z,3.20
2018-10-03T12:46:22.977Z,2.93
2018-10-03T12:48:52.973Z,4.40
2018-10-03T12:54:52.049Z,3.40
2018-10-03T12:58:31.989Z,3.50
2018-10-03T13:03:30.974Z,3.03
2018-10-03T13:06:01.987Z,3.30
2018-10-03T13:08:32.680Z,2.90
2018-10-03T13:11:01.883Z,3.25
2018-10-03T13:13:31.940Z,2.40
2018-10-03T13:16:02.224Z,3.03
2018-10-03T13:21:02.026Z,2.85
2018-10-03T13:23:31.989Z,3.33
2018-10-03T13:26:34.951Z,3.25
2018-10-03T13:30:29.020Z,3.60
2018-10-03T13:32:58.958Z,3.30
2018-10-03T13:35:28.989Z,3.70
2018-10-03T13:37:58.963Z,3.70
2018-10-03T13:40:28.938Z,3.75
2018-10-03T13:42:58.913Z,3.70
2018-10-03T13:45:28.841Z,3.60
2018-10-03T13:50:29.857Z,4.10
2018-10-03T13:52:59.941Z,5.13
2018-10-03T13:55:30.881Z,4.87
2018-10-03T13:58:00.995Z,4.60
2018-10-03T14:00:31.001Z,4.00
2018-10-03T14:03:46.961Z,3.95
2018-10-03T14:08:47.770Z,4.60
2018-10-03T14:11:19.672Z,4.40
2018-10-03T14:13:49.750Z,4.03
2018-10-03T14:16:20.006Z,5.70
2018-10-03T14:18:50.953Z,4.73
2018-10-03T14:21:20.769Z,4.40
2018-10-03T14:23:50.073Z,4.47
2018-10-03T14:26:19.805Z,4.50
2018-10-03T14:28:49.021Z,3.95
2018-10-03T14:33:47.766Z,4.00
2018-10-03T14:36:16.852Z,4.87
2018-10-03T14:38:48.505Z,3.77
2018-10-03T14:41:17.921Z,3.90
2018-10-03T14:43:47.040Z,4.30
2018-10-03T14:46:16.792Z,4.90
2018-10-03T14:48:47.830Z,4.50
2018-10-03T14:51:17.226Z,4.80
2018-10-03T14:56:15.770Z,4.30
2018-10-03T14:58:45.037Z,4.60
2018-10-03T15:03:43.799Z,4.25
2018-10-03T15:06:13.855Z,3.80
2018-10-03T15:08:44.830Z,4.10
2018-10-03T15:11:14.447Z,4.00
2018-10-03T15:16:12.048Z,4.13
2018-10-03T15:23:40.937Z,4.33
2018-10-03T15:28:39.826Z,4.20
2018-10-03T15:31:09.451Z,4.20
2018-10-03T15:33:38.934Z,4.10
2018-10-03T15:36:08.638Z,4.60
2018-10-03T15:38:37.796Z,3.40
2018-10-03T15:41:07.721Z,3.55
2018-10-03T15:43:36.865Z,5.00
2018-10-03T15:46:06.704Z,4.40
2018-10-03T15:48:36.208Z,4.20
2018-10-03T15:51:06.029Z,3.47
2018-10-03T15:56:04.665Z,4.37
2018-10-03T15:58:33.845Z,4.07
2018-10-03T16:01:06.842Z,4.22
2018-10-03T16:03:36.766Z,4.27
2018-10-03T16:06:16.691Z,4.13
2018-10-03T16:11:17.506Z,4.20
2018-10-03T16:18:46.215Z,3.90
2018-10-03T16:21:16.913Z,3.65
2018-10-03T16:23:46.754Z,4.30
2018-10-03T16:26:16.818Z,4.30
2018-10-03T16:31:14.806Z,3.93
2018-10-03T16:33:43.939Z,3.57
2018-10-03T16:36:13.706Z,4.27
2018-10-03T16:38:43.822Z,3.90
2018-10-03T16:41:13.826Z,6.43
2018-10-03T16:43:43.784Z,4.47
2018-10-03T16:46:13.800Z,5.10
2018-10-03T16:53:43.066Z,4.45
2018-10-03T16:56:12.817Z,4.20
2018-10-03T17:00:50.873Z,4.20
2018-10-03T17:03:20.683Z,5.60
2018-10-03T17:08:48.911Z,12.83
2018-10-03T17:11:17.913Z,17.75
2018-10-03T17:14:37.025Z,36.17
2018-10-03T17:17:07.765Z,31.17
2018-10-03T17:19:38.977Z,39.15
2018-10-03T17:22:36.770Z,50.60
2018-10-03T17:25:06.252Z,63.70
2018-10-03T17:27:35.648Z,69.53
2018-10-03T17:30:04.941Z,69.75
2018-10-03T17:32:34.643Z,85.80
2018-10-03T17:35:03.778Z,77.17
2018-10-03T17:37:33.838Z,76.65
2018-10-03T17:40:03.169Z,74.32
2018-10-03T17:42:33.282Z,74.95
2018-10-03T17:47:31.629Z,78.73
2018-10-03T17:50:01.014Z,73.10
2018-10-03T17:52:30.643Z,72.67
2018-10-03T17:54:59.834Z,77.65
2018-10-03T17:57:29.171Z,86.92
2018-10-03T17:59:58.769Z,90.62
2018-10-03T18:02:27.918Z,87.08
2018-10-03T18:04:57.217Z,88.33
2018-10-03T18:07:26.827Z,88.57
2018-10-03T18:09:56.963Z,87.75
2018-10-03T18:12:26.213Z,88.15
2018-10-03T18:14:55.630Z,86.40
2018-10-03T18:17:25.673Z,80.07
2018-10-03T18:19:55.898Z,73.40
2018-10-03T18:22:25.613Z,72.78
2018-10-03T18:27:39.459Z,68.40
2018-10-03T18:30:15.466Z,66.95
2018-10-03T18:32:44.659Z,69.35
2018-10-03T18:35:13.786Z,69.50
2018-10-03T18:37:42.856Z,66.30
2018-10-03T18:40:11.876Z,70.20
2018-10-03T18:42:41.830Z,66.85
2018-10-03T18:45:10.988Z,67.63
2018-10-03T18:47:40.890Z,65.90
2018-10-03T18:50:12.128Z,59.25
2018-10-03T18:52:41.067Z,58.40
2018-10-03T18:55:10.714Z,56.20
2018-10-03T18:57:39.909Z,53.83
2018-10-03T19:00:09.625Z,54.58
2018-10-03T19:05:07.440Z,54.03
2018-10-03T19:12:14.876Z,54.55
2018-10-03T19:14:43.763Z,54.90
2018-10-03T19:17:13.821Z,53.83
2018-10-03T19:19:43.627Z,58.10
2018-10-03T19:22:13.632Z,54.87
2018-10-03T19:24:42.913Z,55.70
2018-10-03T19:27:12.239Z,54.90
2018-10-03T19:29:41.653Z,53.10
2018-10-03T19:32:10.877Z,55.55
2018-10-03T19:34:40.755Z,56.70
2018-10-03T19:39:38.888Z,52.00
2018-10-03T19:42:08.671Z,54.20
2018-10-03T19:44:37.961Z,54.10
2018-10-03T19:47:07.593Z,52.43
2018-10-03T19:49:36.713Z,51.75
2018-10-03T19:52:48.603Z,52.80
2018-10-03T19:57:46.553Z,49.35
2018-10-03T20:00:15.768Z,48.00
2018-10-03T20:05:29.733Z,48.07
2018-10-03T20:07:59.794Z,48.80
2018-10-03T20:10:29.191Z,44.10
2018-10-03T20:12:58.622Z,47.13
2018-10-03T20:15:27.886Z,47.30
2018-10-03T20:17:56.986Z,46.85
2018-10-03T20:20:26.729Z,42.20
2018-10-03T20:24:39.872Z,43.45
2018-10-03T20:27:10.738Z,43.47
2018-10-03T20:29:40.569Z,42.03
2018-10-03T20:32:09.903Z,40.10
2018-10-03T20:34:39.721Z,40.35
2018-10-03T20:37:08.942Z,40.70
2018-10-03T20:42:08.626Z,35.80
2018-10-03T20:44:37.851Z,36.20
2018-10-03T20:47:06.937Z,33.67
2018-10-03T20:49:36.063Z,36.10
2018-10-03T20:52:05.783Z,35.90
2018-10-03T20:54:35.057Z,34.40
2018-10-03T20:57:05.614Z,34.77
2018-10-03T20:59:34.821Z,34.03
2018-10-03T21:02:04.631Z,32.95
2018-10-03T21:04:33.785Z,34.75
2018-10-03T21:07:04.025Z,32.40
2018-10-03T21:09:33.705Z,31.80
2018-10-03T21:13:47.785Z,32.55
2018-10-03T21:16:17.917Z,32.80
2018-10-03T21:18:47.388Z,32.70
2018-10-03T21:21:16.712Z,30.60
2018-10-03T21:23:45.853Z,31.40
2018-10-03T21:26:15.805Z,31.30
2018-10-03T21:28:45.920Z,29.60
2018-10-03T21:31:15.683Z,27.73
2018-10-03T21:33:44.877Z,27.93
2018-10-03T21:36:14.854Z,29.00
2018-10-03T21:38:44.934Z,27.35
2018-10-03T21:43:43.719Z,25.53
2018-10-03T21:46:14.785Z,25.53
2018-10-03T21:49:45.648Z,26.07
2018-10-03T21:54:45.338Z,22.90
2018-10-03T21:58:58.537Z,24.18
2018-10-03T22:01:29.009Z,23.60
2018-10-03T22:04:00.704Z,23.40
2018-10-03T22:06:30.937Z,23.87
2018-10-03T22:11:29.785Z,21.85
2018-10-03T22:13:59.655Z,20.43
2018-10-03T22:22:29.395Z,18.60
2018-10-03T22:24:59.926Z,18.80
2018-10-03T22:27:30.185Z,18.55
2018-10-03T22:32:28.795Z,17.90
2018-10-03T22:34:58.762Z,17.97
2018-10-03T22:39:43.905Z,18.62
2018-10-03T22:42:13.792Z,18.40
2018-10-03T22:44:43.882Z,18.17
2018-10-03T22:49:00.745Z,18.67
2018-10-03T22:51:30.167Z,18.30
2018-10-03T22:54:33.234Z,18.50
2018-10-03T22:59:31.899Z,17.20
2018-10-03T23:02:01.769Z,17.60
2018-10-03T23:04:30.909Z,17.53
2018-10-03T23:07:00.721Z,16.25
2018-10-03T23:09:30.197Z,15.48
2018-10-03T23:11:59.832Z,16.60
2018-10-03T23:14:29.839Z,15.00
2018-10-03T23:17:00.801Z,13.80
2018-10-03T23:19:30.734Z,14.85
2018-10-03T23:21:59.969Z,15.05
2018-10-03T23:24:30.949Z,14.80
2018-10-03T23:29:30.831Z,14.50
2018-10-03T23:36:57.851Z,13.53
2018-10-03T23:39:27.746Z,13.50
2018-10-03T23:43:10.942Z,13.55
2018-10-03T23:45:40.002Z,13.80
2018-10-03T23:50:38.199Z,12.93
2018-10-03T23:53:09.826Z,13.20
2018-10-03T23:55:39.201Z,12.70
2018-10-03T23:58:08.850Z,12.40
